sensor_id;sensor_type;location;lat;lon;timestamp;P1;durP1;ratioP1;P2;durP2;ratioP2
72926;SDS011;61071;51.618;19.388;2022-12-10T00:01:49;162.75;;;60.25;;
72926;SDS011;61071;51.618;19.388;2022-12-10T00:04:17;142.85;;;55.35;;
72926;SDS011;61071;51.618;19.388;2022-12-10T00:06:44;148.70;;;56.47;;
72926;SDS011;61071;51.618;19.388;2022-12-10T00:09:12;131.95;;;54.80;;
72926;SDS011;61071;51.618;19.388;2022-12-10T00:11:42;134.52;;;53.65;;
72926;SDS011;61071;51.618;19.388;2022-12-10T00:14:08;135.85;;;55.00;;
72926;SDS011;61071;51.618;19.388;2022-12-10T00:16:36;138.60;;;53.20;;
72926;SDS011;61071;51.618;19.388;2022-12-10T00:19:02;142.05;;;53.85;;
72926;SDS011;61071;51.618;19.388;2022-12-10T00:21:30;126.03;;;49.67;;
72926;SDS011;61071;51.618;19.388;2022-12-10T00:23:59;121.43;;;47.55;;
72926;SDS011;61071;51.618;19.388;2022-12-10T00:26:28;128.38;;;49.17;;
72926;SDS011;61071;51.618;19.388;2022-12-10T00:28:57;128.85;;;49.15;;
72926;SDS011;61071;51.618;19.388;2022-12-10T00:31:25;139.80;;;50.80;;
72926;SDS011;61071;51.618;19.388;2022-12-10T00:33:55;122.75;;;50.13;;
72926;SDS011;61071;51.618;19.388;2022-12-10T00:36:27;133.07;;;50.55;;
72926;SDS011;61071;51.618;19.388;2022-12-10T00:38:56;122.40;;;44.67;;
72926;SDS011;61071;51.618;19.388;2022-12-10T00:41:22;137.90;;;52.17;;
72926;SDS011;61071;51.618;19.388;2022-12-10T00:43:51;128.43;;;47.30;;
72926;SDS011;61071;51.618;19.388;2022-12-10T00:46:22;104.97;;;42.22;;
72926;SDS011;61071;51.618;19.388;2022-12-10T00:48:48;129.45;;;47.22;;
72926;SDS011;61071;51.618;19.388;2022-12-10T00:51:15;131.50;;;45.65;;
72926;SDS011;61071;51.618;19.388;2022-12-10T00:53:48;130.57;;;46.20;;
72926;SDS011;61071;51.618;19.388;2022-12-10T00:56:17;128.38;;;46.22;;
72926;SDS011;61071;51.618;19.388;2022-12-10T00:58:49;122.53;;;46.70;;
72926;SDS011;61071;51.618;19.388;2022-12-10T01:01:21;132.05;;;47.75;;
72926;SDS011;61071;51.618;19.388;2022-12-10T01:04:07;135.55;;;45.47;;
72926;SDS011;61071;51.618;19.388;2022-12-10T01:06:42;103.88;;;37.20;;
72926;SDS011;61071;51.618;19.388;2022-12-10T01:09:12;110.18;;;40.78;;
72926;SDS011;61071;51.618;19.388;2022-12-10T01:11:42;102.40;;;42.80;;
72926;SDS011;61071;51.618;19.388;2022-12-10T01:14:11;108.25;;;43.08;;
72926;SDS011;61071;51.618;19.388;2022-12-10T01:16:44;109.07;;;43.50;;
72926;SDS011;61071;51.618;19.388;2022-12-10T01:19:10;105.03;;;39.97;;
72926;SDS011;61071;51.618;19.388;2022-12-10T01:21:37;125.05;;;46.38;;
72926;SDS011;61071;51.618;19.388;2022-12-10T01:24:02;119.28;;;44.42;;
72926;SDS011;61071;51.618;19.388;2022-12-10T01:26:30;100.07;;;39.65;;
72926;SDS011;61071;51.618;19.388;2022-12-10T01:28:59;119.03;;;42.78;;
72926;SDS011;61071;51.618;19.388;2022-12-10T01:33:55;100.97;;;40.97;;
72926;SDS011;61071;51.618;19.388;2022-12-10T01:36:24;118.95;;;42.95;;
72926;SDS011;61071;51.618;19.388;2022-12-10T01:38:53;110.00;;;43.13;;
72926;SDS011;61071;51.618;19.388;2022-12-10T01:41:24;104.30;;;41.45;;
72926;SDS011;61071;51.618;19.388;2022-12-10T01:49:07;119.30;;;44.33;;
72926;SDS011;61071;51.618;19.388;2022-12-10T01:51:44;93.65;;;38.22;;
72926;SDS011;61071;51.618;19.388;2022-12-10T01:54:18;105.13;;;41.63;;
72926;SDS011;61071;51.618;19.388;2022-12-10T01:57:26;112.38;;;42.28;;
72926;SDS011;61071;51.618;19.388;2022-12-10T01:59:57;108.20;;;39.83;;
72926;SDS011;61071;51.618;19.388;2022-12-10T02:13:33;86.60;;;36.80;;
72926;SDS011;61071;51.618;19.388;2022-12-10T02:18:50;86.85;;;37.38;;
72926;SDS011;61071;51.618;19.388;2022-12-10T02:21:28;90.90;;;38.28;;
72926;SDS011;61071;51.618;19.388;2022-12-10T02:24:04;101.07;;;39.08;;
72926;SDS011;61071;51.618;19.388;2022-12-10T02:26:48;94.20;;;39.38;;
72926;SDS011;61071;51.618;19.388;2022-12-10T02:29:21;99.25;;;40.03;;
72926;SDS011;61071;51.618;19.388;2022-12-10T02:34:49;106.93;;;45.22;;
72926;SDS011;61071;51.618;19.388;2022-12-10T02:37:27;100.85;;;40.40;;
72926;SDS011;61071;51.618;19.388;2022-12-10T02:40:00;97.60;;;40.45;;
72926;SDS011;61071;51.618;19.388;2022-12-10T02:42:34;95.32;;;38.55;;
72926;SDS011;61071;51.618;19.388;2022-12-10T02:45:06;86.47;;;35.78;;
72926;SDS011;61071;51.618;19.388;2022-12-10T02:47:33;99.10;;;39.28;;
72926;SDS011;61071;51.618;19.388;2022-12-10T02:50:00;94.13;;;38.45;;
72926;SDS011;61071;51.618;19.388;2022-12-10T02:52:26;83.53;;;35.97;;
72926;SDS011;61071;51.618;19.388;2022-12-10T02:54:52;93.15;;;38.53;;
72926;SDS011;61071;51.618;19.388;2022-12-10T03:09:06;82.93;;;34.00;;
72926;SDS011;61071;51.618;19.388;2022-12-10T03:11:49;78.97;;;33.80;;
72926;SDS011;61071;51.618;19.388;2022-12-10T03:14:27;82.40;;;35.17;;
72926;SDS011;61071;51.618;19.388;2022-12-10T03:16:56;87.40;;;38.38;;
72926;SDS011;61071;51.618;19.388;2022-12-10T03:19:30;75.97;;;33.95;;
72926;SDS011;61071;51.618;19.388;2022-12-10T03:22:02;85.40;;;36.15;;
72926;SDS011;61071;51.618;19.388;2022-12-10T03:24:32;75.85;;;33.70;;
72926;SDS011;61071;51.618;19.388;2022-12-10T03:27:00;87.57;;;36.40;;
72926;SDS011;61071;51.618;19.388;2022-12-10T03:29:33;83.03;;;36.77;;
72926;SDS011;61071;51.618;19.388;2022-12-10T03:32:20;83.10;;;36.55;;
72926;SDS011;61071;51.618;19.388;2022-12-10T03:34:52;88.25;;;37.70;;
72926;SDS011;61071;51.618;19.388;2022-12-10T03:37:21;85.97;;;39.00;;
72926;SDS011;61071;51.618;19.388;2022-12-10T03:39:49;77.60;;;36.38;;
72926;SDS011;61071;51.618;19.388;2022-12-10T03:42:16;79.47;;;35.05;;
72926;SDS011;61071;51.618;19.388;2022-12-10T03:44:41;84.47;;;36.38;;
72926;SDS011;61071;51.618;19.388;2022-12-10T03:47:08;84.45;;;37.17;;
72926;SDS011;61071;51.618;19.388;2022-12-10T03:52:06;83.80;;;34.75;;
72926;SDS011;61071;51.618;19.388;2022-12-10T03:54:31;76.88;;;32.65;;
72926;SDS011;61071;51.618;19.388;2022-12-10T03:56:57;78.53;;;34.90;;
72926;SDS011;61071;51.618;19.388;2022-12-10T03:59:23;85.57;;;38.38;;
72926;SDS011;61071;51.618;19.388;2022-12-10T04:01:48;77.20;;;35.65;;
72926;SDS011;61071;51.618;19.388;2022-12-10T04:04:14;84.05;;;36.85;;
72926;SDS011;61071;51.618;19.388;2022-12-10T04:06:40;79.10;;;34.92;;
72926;SDS011;61071;51.618;19.388;2022-12-10T04:09:08;80.22;;;36.10;;
72926;SDS011;61071;51.618;19.388;2022-12-10T04:11:36;82.50;;;37.15;;
72926;SDS011;61071;51.618;19.388;2022-12-10T04:14:02;75.90;;;34.42;;
72926;SDS011;61071;51.618;19.388;2022-12-10T04:16:46;76.10;;;33.95;;
72926;SDS011;61071;51.618;19.388;2022-12-10T04:19:13;78.55;;;33.47;;
72926;SDS011;61071;51.618;19.388;2022-12-10T04:21:42;86.60;;;36.50;;
72926;SDS011;61071;51.618;19.388;2022-12-10T04:24:30;82.38;;;34.67;;
72926;SDS011;61071;51.618;19.388;2022-12-10T04:27:27;89.07;;;35.80;;
72926;SDS011;61071;51.618;19.388;2022-12-10T04:29:55;83.82;;;35.38;;
72926;SDS011;61071;51.618;19.388;2022-12-10T04:32:24;84.53;;;35.00;;
72926;SDS011;61071;51.618;19.388;2022-12-10T04:34:52;89.07;;;39.17;;
72926;SDS011;61071;51.618;19.388;2022-12-10T04:37:18;85.53;;;36.30;;
72926;SDS011;61071;51.618;19.388;2022-12-10T04:39:45;88.50;;;36.80;;
72926;SDS011;61071;51.618;19.388;2022-12-10T04:42:12;87.18;;;36.42;;
72926;SDS011;61071;51.618;19.388;2022-12-10T04:44:38;90.78;;;39.45;;
72926;SDS011;61071;51.618;19.388;2022-12-10T04:47:05;88.97;;;36.88;;
72926;SDS011;61071;51.618;19.388;2022-12-10T04:49:33;80.80;;;32.78;;
72926;SDS011;61071;51.618;19.388;2022-12-10T04:51:59;98.57;;;38.58;;
72926;SDS011;61071;51.618;19.388;2022-12-10T04:54:25;101.70;;;39.10;;
72926;SDS011;61071;51.618;19.388;2022-12-10T04:56:52;102.72;;;40.92;;
72926;SDS011;61071;51.618;19.388;2022-12-10T04:59:18;105.35;;;40.42;;
72926;SDS011;61071;51.618;19.388;2022-12-10T05:01:44;108.43;;;39.17;;
72926;SDS011;61071;51.618;19.388;2022-12-10T05:04:11;108.63;;;39.38;;
72926;SDS011;61071;51.618;19.388;2022-12-10T05:06:39;108.78;;;39.13;;
72926;SDS011;61071;51.618;19.388;2022-12-10T05:09:05;128.02;;;43.70;;
72926;SDS011;61071;51.618;19.388;2022-12-10T05:11:32;110.63;;;38.92;;
72926;SDS011;61071;51.618;19.388;2022-12-10T05:13:59;126.05;;;44.22;;
72926;SDS011;61071;51.618;19.388;2022-12-10T05:16:26;130.57;;;42.30;;
72926;SDS011;61071;51.618;19.388;2022-12-10T05:18:55;131.48;;;43.42;;
72926;SDS011;61071;51.618;19.388;2022-12-10T05:21:22;148.63;;;45.17;;
72926;SDS011;61071;51.618;19.388;2022-12-10T05:24:11;110.68;;;38.47;;
72926;SDS011;61071;51.618;19.388;2022-12-10T05:26:37;131.43;;;42.92;;
72926;SDS011;61071;51.618;19.388;2022-12-10T05:29:03;137.85;;;43.97;;
72926;SDS011;61071;51.618;19.388;2022-12-10T05:31:29;127.90;;;43.47;;
72926;SDS011;61071;51.618;19.388;2022-12-10T05:33:55;129.20;;;42.58;;
72926;SDS011;61071;51.618;19.388;2022-12-10T05:36:24;114.40;;;39.28;;
72926;SDS011;61071;51.618;19.388;2022-12-10T05:38:56;130.48;;;42.63;;
72926;SDS011;61071;51.618;19.388;2022-12-10T05:41:23;123.07;;;42.53;;
72926;SDS011;61071;51.618;19.388;2022-12-10T05:43:56;135.45;;;43.55;;
72926;SDS011;61071;51.618;19.388;2022-12-10T05:46:24;127.05;;;43.08;;
72926;SDS011;61071;51.618;19.388;2022-12-10T05:48:53;145.13;;;44.35;;
72926;SDS011;61071;51.618;19.388;2022-12-10T05:51:23;149.52;;;47.55;;
72926;SDS011;61071;51.618;19.388;2022-12-10T05:53:53;136.55;;;44.90;;
72926;SDS011;61071;51.618;19.388;2022-12-10T05:56:22;138.25;;;45.13;;
72926;SDS011;61071;51.618;19.388;2022-12-10T05:58:50;125.60;;;45.40;;
72926;SDS011;61071;51.618;19.388;2022-12-10T06:01:23;123.53;;;42.35;;
72926;SDS011;61071;51.618;19.388;2022-12-10T06:03:51;143.32;;;46.13;;
72926;SDS011;61071;51.618;19.388;2022-12-10T06:06:50;157.05;;;48.30;;
72926;SDS011;61071;51.618;19.388;2022-12-10T06:09:12;151.25;;;47.42;;
72926;SDS011;61071;51.618;19.388;2022-12-10T06:11:38;162.18;;;51.78;;
72926;SDS011;61071;51.618;19.388;2022-12-10T06:14:04;183.43;;;48.63;;
72926;SDS011;61071;51.618;19.388;2022-12-10T06:16:30;162.65;;;50.30;;
72926;SDS011;61071;51.618;19.388;2022-12-10T06:18:56;174.57;;;52.03;;
72926;SDS011;61071;51.618;19.388;2022-12-10T06:21:22;188.45;;;53.38;;
72926;SDS011;61071;51.618;19.388;2022-12-10T06:23:49;178.48;;;50.85;;
72926;SDS011;61071;51.618;19.388;2022-12-10T06:26:23;164.63;;;48.80;;
72926;SDS011;61071;51.618;19.388;2022-12-10T06:28:51;167.18;;;49.25;;
72926;SDS011;61071;51.618;19.388;2022-12-10T06:31:18;156.60;;;50.53;;
72926;SDS011;61071;51.618;19.388;2022-12-10T06:33:45;148.35;;;44.50;;
72926;SDS011;61071;51.618;19.388;2022-12-10T06:36:12;174.75;;;50.30;;
72926;SDS011;61071;51.618;19.388;2022-12-10T06:38:40;152.18;;;47.47;;
72926;SDS011;61071;51.618;19.388;2022-12-10T06:41:07;195.10;;;51.30;;
72926;SDS011;61071;51.618;19.388;2022-12-10T06:43:34;179.82;;;53.45;;
72926;SDS011;61071;51.618;19.388;2022-12-10T06:46:08;178.48;;;49.13;;
72926;SDS011;61071;51.618;19.388;2022-12-10T06:48:36;190.05;;;56.17;;
72926;SDS011;61071;51.618;19.388;2022-12-10T06:51:02;171.48;;;50.38;;
72926;SDS011;61071;51.618;19.388;2022-12-10T06:53:30;166.63;;;47.83;;
72926;SDS011;61071;51.618;19.388;2022-12-10T06:56:00;201.38;;;51.25;;
72926;SDS011;61071;51.618;19.388;2022-12-10T06:58:30;159.05;;;43.70;;
72926;SDS011;61071;51.618;19.388;2022-12-10T07:01:04;170.98;;;47.38;;
72926;SDS011;61071;51.618;19.388;2022-12-10T07:03:32;178.55;;;51.25;;
72926;SDS011;61071;51.618;19.388;2022-12-10T07:05:58;162.88;;;46.33;;
72926;SDS011;61071;51.618;19.388;2022-12-10T07:08:26;145.40;;;45.03;;
72926;SDS011;61071;51.618;19.388;2022-12-10T07:10:52;154.52;;;45.95;;
72926;SDS011;61071;51.618;19.388;2022-12-10T07:13:18;147.95;;;43.72;;
72926;SDS011;61071;51.618;19.388;2022-12-10T07:15:43;164.77;;;47.80;;
72926;SDS011;61071;51.618;19.388;2022-12-10T07:18:09;152.07;;;44.92;;
72926;SDS011;61071;51.618;19.388;2022-12-10T07:20:35;174.27;;;50.38;;
72926;SDS011;61071;51.618;19.388;2022-12-10T07:23:01;108.57;;;37.20;;
72926;SDS011;61071;51.618;19.388;2022-12-10T07:25:27;146.63;;;44.35;;
72926;SDS011;61071;51.618;19.388;2022-12-10T07:27:52;159.82;;;47.58;;
72926;SDS011;61071;51.618;19.388;2022-12-10T07:30:18;147.13;;;44.13;;
72926;SDS011;61071;51.618;19.388;2022-12-10T07:32:44;129.40;;;41.92;;
72926;SDS011;61071;51.618;19.388;2022-12-10T07:35:09;159.95;;;48.28;;
72926;SDS011;61071;51.618;19.388;2022-12-10T07:37:35;153.32;;;44.92;;
72926;SDS011;61071;51.618;19.388;2022-12-10T07:40:01;156.88;;;44.88;;
72926;SDS011;61071;51.618;19.388;2022-12-10T07:42:27;151.65;;;47.28;;
72926;SDS011;61071;51.618;19.388;2022-12-10T07:44:53;125.78;;;42.67;;
72926;SDS011;61071;51.618;19.388;2022-12-10T07:47:19;118.05;;;42.25;;
72926;SDS011;61071;51.618;19.388;2022-12-10T07:49:45;131.48;;;43.78;;
72926;SDS011;61071;51.618;19.388;2022-12-10T07:52:11;154.60;;;48.35;;
72926;SDS011;61071;51.618;19.388;2022-12-10T07:54:36;131.30;;;44.22;;
72926;SDS011;61071;51.618;19.388;2022-12-10T07:57:02;154.63;;;50.88;;
72926;SDS011;61071;51.618;19.388;2022-12-10T07:59:28;130.98;;;41.35;;
72926;SDS011;61071;51.618;19.388;2022-12-10T08:01:54;127.93;;;42.13;;
72926;SDS011;61071;51.618;19.388;2022-12-10T08:04:20;137.65;;;45.97;;
72926;SDS011;61071;51.618;19.388;2022-12-10T08:06:45;134.10;;;44.58;;
72926;SDS011;61071;51.618;19.388;2022-12-10T08:09:12;133.93;;;45.35;;
72926;SDS011;61071;51.618;19.388;2022-12-10T08:11:38;161.55;;;50.03;;
72926;SDS011;61071;51.618;19.388;2022-12-10T08:14:04;127.45;;;46.20;;
72926;SDS011;61071;51.618;19.388;2022-12-10T08:16:29;132.60;;;44.75;;
72926;SDS011;61071;51.618;19.388;2022-12-10T08:18:59;123.35;;;40.15;;
72926;SDS011;61071;51.618;19.388;2022-12-10T08:21:27;122.13;;;42.03;;
72926;SDS011;61071;51.618;19.388;2022-12-10T08:23:55;125.38;;;45.00;;
72926;SDS011;61071;51.618;19.388;2022-12-10T08:26:22;120.22;;;44.17;;
72926;SDS011;61071;51.618;19.388;2022-12-10T08:28:53;123.57;;;45.90;;
72926;SDS011;61071;51.618;19.388;2022-12-10T08:31:21;121.03;;;45.35;;
72926;SDS011;61071;51.618;19.388;2022-12-10T08:33:49;106.88;;;39.78;;
72926;SDS011;61071;51.618;19.388;2022-12-10T08:36:15;126.25;;;47.58;;
72926;SDS011;61071;51.618;19.388;2022-12-10T08:38:43;112.10;;;41.78;;
72926;SDS011;61071;51.618;19.388;2022-12-10T08:41:13;110.88;;;43.03;;
72926;SDS011;61071;51.618;19.388;2022-12-10T08:43:42;120.53;;;44.55;;
72926;SDS011;61071;51.618;19.388;2022-12-10T08:46:09;105.50;;;40.35;;
72926;SDS011;61071;51.618;19.388;2022-12-10T08:48:36;113.65;;;43.03;;
72926;SDS011;61071;51.618;19.388;2022-12-10T08:51:03;141.05;;;51.35;;
72926;SDS011;61071;51.618;19.388;2022-12-10T08:53:30;146.23;;;53.47;;
72926;SDS011;61071;51.618;19.388;2022-12-10T08:55:57;109.97;;;42.50;;
72926;SDS011;61071;51.618;19.388;2022-12-10T08:58:22;112.22;;;42.03;;
72926;SDS011;61071;51.618;19.388;2022-12-10T09:00:48;101.70;;;39.95;;
72926;SDS011;61071;51.618;19.388;2022-12-10T09:03:15;179.43;;;66.00;;
72926;SDS011;61071;51.618;19.388;2022-12-10T09:05:41;115.13;;;43.83;;
72926;SDS011;61071;51.618;19.388;2022-12-10T09:08:08;149.40;;;54.58;;
72926;SDS011;61071;51.618;19.388;2022-12-10T09:10:38;100.75;;;40.78;;
72926;SDS011;61071;51.618;19.388;2022-12-10T09:13:05;105.57;;;44.57;;
72926;SDS011;61071;51.618;19.388;2022-12-10T09:15:31;98.00;;;42.15;;
72926;SDS011;61071;51.618;19.388;2022-12-10T09:17:57;98.80;;;40.00;;
72926;SDS011;61071;51.618;19.388;2022-12-10T09:20:22;91.53;;;38.28;;
72926;SDS011;61071;51.618;19.388;2022-12-10T09:22:49;94.85;;;38.42;;
72926;SDS011;61071;51.618;19.388;2022-12-10T09:25:15;99.75;;;41.50;;
72926;SDS011;61071;51.618;19.388;2022-12-10T09:27:42;106.60;;;41.47;;
72926;SDS011;61071;51.618;19.388;2022-12-10T09:30:08;107.28;;;43.45;;
72926;SDS011;61071;51.618;19.388;2022-12-10T09:32:36;93.72;;;38.58;;
72926;SDS011;61071;51.618;19.388;2022-12-10T09:35:02;106.55;;;42.92;;
72926;SDS011;61071;51.618;19.388;2022-12-10T09:37:29;91.53;;;38.10;;
72926;SDS011;61071;51.618;19.388;2022-12-10T09:39:54;95.20;;;37.30;;
72926;SDS011;61071;51.618;19.388;2022-12-10T09:42:30;92.18;;;40.22;;
72926;SDS011;61071;51.618;19.388;2022-12-10T09:45:09;85.72;;;37.63;;
72926;SDS011;61071;51.618;19.388;2022-12-10T09:48:21;97.82;;;38.83;;
72926;SDS011;61071;51.618;19.388;2022-12-10T09:51:04;90.38;;;38.33;;
72926;SDS011;61071;51.618;19.388;2022-12-10T09:53:42;104.88;;;42.42;;
72926;SDS011;61071;51.618;19.388;2022-12-10T09:56:14;101.90;;;40.58;;
72926;SDS011;61071;51.618;19.388;2022-12-10T09:58:48;99.95;;;41.95;;
72926;SDS011;61071;51.618;19.388;2022-12-10T10:01:15;101.43;;;41.15;;
72926;SDS011;61071;51.618;19.388;2022-12-10T10:03:44;96.88;;;37.33;;
72926;SDS011;61071;51.618;19.388;2022-12-10T10:06:12;94.75;;;38.17;;
72926;SDS011;61071;51.618;19.388;2022-12-10T10:08:44;100.20;;;40.53;;
72926;SDS011;61071;51.618;19.388;2022-12-10T10:11:16;83.47;;;37.88;;
72926;SDS011;61071;51.618;19.388;2022-12-10T10:16:47;90.10;;;38.72;;
72926;SDS011;61071;51.618;19.388;2022-12-10T10:19:25;95.82;;;39.40;;
72926;SDS011;61071;51.618;19.388;2022-12-10T10:21:55;95.05;;;38.67;;
72926;SDS011;61071;51.618;19.388;2022-12-10T10:24:24;102.47;;;43.05;;
72926;SDS011;61071;51.618;19.388;2022-12-10T10:27:15;89.20;;;38.13;;
72926;SDS011;61071;51.618;19.388;2022-12-10T10:29:46;95.38;;;38.70;;
72926;SDS011;61071;51.618;19.388;2022-12-10T10:32:17;105.25;;;44.58;;
72926;SDS011;61071;51.618;19.388;2022-12-10T10:34:51;98.13;;;40.92;;
72926;SDS011;61071;51.618;19.388;2022-12-10T10:37:25;87.10;;;37.65;;
72926;SDS011;61071;51.618;19.388;2022-12-10T10:39:55;95.65;;;41.10;;
72926;SDS011;61071;51.618;19.388;2022-12-10T10:42:34;94.45;;;37.63;;
72926;SDS011;61071;51.618;19.388;2022-12-10T10:45:30;94.82;;;40.20;;
72926;SDS011;61071;51.618;19.388;2022-12-10T10:50:46;88.10;;;38.70;;
72926;SDS011;61071;51.618;19.388;2022-12-10T11:07:18;97.60;;;42.00;;
72926;SDS011;61071;51.618;19.388;2022-12-10T11:09:56;105.78;;;42.50;;
72926;SDS011;61071;51.618;19.388;2022-12-10T11:12:34;108.22;;;43.58;;
72926;SDS011;61071;51.618;19.388;2022-12-10T11:17:53;96.32;;;38.25;;
72926;SDS011;61071;51.618;19.388;2022-12-10T11:20:24;102.82;;;41.60;;
72926;SDS011;61071;51.618;19.388;2022-12-10T11:22:57;103.25;;;41.38;;
72926;SDS011;61071;51.618;19.388;2022-12-10T11:28:12;88.55;;;36.75;;
72926;SDS011;61071;51.618;19.388;2022-12-10T11:37:33;121.22;;;45.72;;
72926;SDS011;61071;51.618;19.388;2022-12-10T11:58:48;101.47;;;37.78;;
72926;SDS011;61071;51.618;19.388;2022-12-10T12:01:34;91.30;;;37.03;;
72926;SDS011;61071;51.618;19.388;2022-12-10T12:13:36;93.28;;;37.60;;
72926;SDS011;61071;51.618;19.388;2022-12-10T12:16:31;107.32;;;41.40;;
72926;SDS011;61071;51.618;19.388;2022-12-10T12:19:16;89.45;;;38.15;;
72926;SDS011;61071;51.618;19.388;2022-12-10T12:21:50;77.47;;;33.05;;
72926;SDS011;61071;51.618;19.388;2022-12-10T12:27:43;111.75;;;42.05;;
72926;SDS011;61071;51.618;19.388;2022-12-10T12:30:05;103.80;;;42.08;;
72926;SDS011;61071;51.618;19.388;2022-12-10T12:33:00;90.90;;;38.90;;
72926;SDS011;61071;51.618;19.388;2022-12-10T12:35:52;94.97;;;38.15;;
72926;SDS011;61071;51.618;19.388;2022-12-10T12:43:43;98.35;;;40.25;;
72926;SDS011;61071;51.618;19.388;2022-12-10T12:46:29;79.53;;;33.50;;
72926;SDS011;61071;51.618;19.388;2022-12-10T12:54:48;80.00;;;34.05;;
72926;SDS011;61071;51.618;19.388;2022-12-10T13:00:03;93.53;;;38.28;;
72926;SDS011;61071;51.618;19.388;2022-12-10T13:05:42;80.30;;;30.52;;
72926;SDS011;61071;51.618;19.388;2022-12-10T13:10:44;96.60;;;40.53;;
72926;SDS011;61071;51.618;19.388;2022-12-10T13:13:41;87.97;;;38.95;;
72926;SDS011;61071;51.618;19.388;2022-12-10T13:19:23;80.03;;;32.30;;
72926;SDS011;61071;51.618;19.388;2022-12-10T13:24:48;73.30;;;28.95;;
72926;SDS011;61071;51.618;19.388;2022-12-10T13:27:40;74.65;;;31.48;;
72926;SDS011;61071;51.618;19.388;2022-12-10T13:30:26;79.97;;;32.08;;
72926;SDS011;61071;51.618;19.388;2022-12-10T13:33:05;104.70;;;40.83;;
72926;SDS011;61071;51.618;19.388;2022-12-10T13:36:03;98.63;;;39.40;;
72926;SDS011;61071;51.618;19.388;2022-12-10T13:38:28;81.95;;;32.67;;
72926;SDS011;61071;51.618;19.388;2022-12-10T13:40:58;76.03;;;30.42;;
72926;SDS011;61071;51.618;19.388;2022-12-10T13:43:58;84.38;;;34.38;;
72926;SDS011;61071;51.618;19.388;2022-12-10T13:46:55;71.85;;;30.88;;
72926;SDS011;61071;51.618;19.388;2022-12-10T13:49:53;85.35;;;30.58;;
72926;SDS011;61071;51.618;19.388;2022-12-10T14:07:03;105.32;;;39.35;;
72926;SDS011;61071;51.618;19.388;2022-12-10T14:09:29;109.60;;;42.22;;
72926;SDS011;61071;51.618;19.388;2022-12-10T14:12:02;112.13;;;38.78;;
72926;SDS011;61071;51.618;19.388;2022-12-10T14:14:36;90.90;;;35.67;;
72926;SDS011;61071;51.618;19.388;2022-12-10T14:17:12;114.13;;;42.03;;
72926;SDS011;61071;51.618;19.388;2022-12-10T14:19:44;95.63;;;35.78;;
72926;SDS011;61071;51.618;19.388;2022-12-10T14:22:16;119.47;;;46.10;;
72926;SDS011;61071;51.618;19.388;2022-12-10T14:24:49;102.53;;;39.05;;
72926;SDS011;61071;51.618;19.388;2022-12-10T14:27:17;102.82;;;39.08;;
72926;SDS011;61071;51.618;19.388;2022-12-10T14:29:50;105.38;;;37.08;;
72926;SDS011;61071;51.618;19.388;2022-12-10T14:32:23;99.68;;;35.58;;
72926;SDS011;61071;51.618;19.388;2022-12-10T14:34:57;99.47;;;38.00;;
72926;SDS011;61071;51.618;19.388;2022-12-10T14:37:26;95.93;;;36.05;;
72926;SDS011;61071;51.618;19.388;2022-12-10T14:39:56;104.25;;;38.33;;
72926;SDS011;61071;51.618;19.388;2022-12-10T14:42:22;94.15;;;35.72;;
72926;SDS011;61071;51.618;19.388;2022-12-10T14:44:51;80.03;;;31.27;;
72926;SDS011;61071;51.618;19.388;2022-12-10T14:47:37;82.60;;;30.80;;
72926;SDS011;61071;51.618;19.388;2022-12-10T14:50:06;73.68;;;28.38;;
72926;SDS011;61071;51.618;19.388;2022-12-10T14:52:44;84.82;;;33.25;;
72926;SDS011;61071;51.618;19.388;2022-12-10T14:55:18;94.32;;;33.10;;
72926;SDS011;61071;51.618;19.388;2022-12-10T14:57:50;83.10;;;31.70;;
72926;SDS011;61071;51.618;19.388;2022-12-10T15:00:26;90.82;;;33.75;;
72926;SDS011;61071;51.618;19.388;2022-12-10T15:03:17;90.43;;;35.40;;
72926;SDS011;61071;51.618;19.388;2022-12-10T15:05:54;78.97;;;31.60;;
72926;SDS011;61071;51.618;19.388;2022-12-10T15:08:24;77.13;;;29.52;;
72926;SDS011;61071;51.618;19.388;2022-12-10T15:10:54;97.45;;;32.03;;
72926;SDS011;61071;51.618;19.388;2022-12-10T15:13:37;85.68;;;33.17;;
72926;SDS011;61071;51.618;19.388;2022-12-10T15:16:18;89.45;;;32.55;;
72926;SDS011;61071;51.618;19.388;2022-12-10T15:19:42;89.80;;;32.70;;
72926;SDS011;61071;51.618;19.388;2022-12-10T15:22:34;85.05;;;31.20;;
72926;SDS011;61071;51.618;19.388;2022-12-10T15:24:54;78.05;;;30.38;;
72926;SDS011;61071;51.618;19.388;2022-12-10T15:27:24;87.47;;;31.50;;
72926;SDS011;61071;51.618;19.388;2022-12-10T15:29:50;88.85;;;30.63;;
72926;SDS011;61071;51.618;19.388;2022-12-10T15:32:26;86.65;;;32.65;;
72926;SDS011;61071;51.618;19.388;2022-12-10T15:34:54;90.97;;;34.75;;
72926;SDS011;61071;51.618;19.388;2022-12-10T15:37:25;80.50;;;31.13;;
72926;SDS011;61071;51.618;19.388;2022-12-10T15:39:59;92.18;;;33.58;;
72926;SDS011;61071;51.618;19.388;2022-12-10T15:45:22;97.97;;;36.15;;
72926;SDS011;61071;51.618;19.388;2022-12-10T15:47:51;134.55;;;42.53;;
72926;SDS011;61071;51.618;19.388;2022-12-10T15:50:33;144.90;;;48.97;;
72926;SDS011;61071;51.618;19.388;2022-12-10T15:52:59;112.57;;;39.17;;
72926;SDS011;61071;51.618;19.388;2022-12-10T15:55:24;111.32;;;37.75;;
72926;SDS011;61071;51.618;19.388;2022-12-10T15:57:50;99.30;;;37.45;;
72926;SDS011;61071;51.618;19.388;2022-12-10T16:00:18;100.43;;;36.83;;
72926;SDS011;61071;51.618;19.388;2022-12-10T16:02:54;115.68;;;39.63;;
72926;SDS011;61071;51.618;19.388;2022-12-10T16:07:55;152.50;;;54.00;;
72926;SDS011;61071;51.618;19.388;2022-12-10T16:10:25;120.50;;;41.83;;
72926;SDS011;61071;51.618;19.388;2022-12-10T16:13:15;120.43;;;40.92;;
72926;SDS011;61071;51.618;19.388;2022-12-10T16:15:50;127.85;;;41.83;;
72926;SDS011;61071;51.618;19.388;2022-12-10T16:18:25;131.82;;;42.30;;
72926;SDS011;61071;51.618;19.388;2022-12-10T16:20:51;133.93;;;46.67;;
72926;SDS011;61071;51.618;19.388;2022-12-10T16:23:17;108.72;;;34.55;;
72926;SDS011;61071;51.618;19.388;2022-12-10T16:25:43;122.13;;;41.58;;
72926;SDS011;61071;51.618;19.388;2022-12-10T16:28:11;123.68;;;35.25;;
72926;SDS011;61071;51.618;19.388;2022-12-10T16:30:51;112.50;;;36.47;;
72926;SDS011;61071;51.618;19.388;2022-12-10T16:33:20;123.55;;;41.60;;
72926;SDS011;61071;51.618;19.388;2022-12-10T16:35:49;128.68;;;43.38;;
72926;SDS011;61071;51.618;19.388;2022-12-10T16:38:17;125.43;;;40.15;;
72926;SDS011;61071;51.618;19.388;2022-12-10T16:40:44;117.72;;;41.03;;
72926;SDS011;61071;51.618;19.388;2022-12-10T16:43:18;112.90;;;40.53;;
72926;SDS011;61071;51.618;19.388;2022-12-10T16:45:48;133.77;;;44.08;;
72926;SDS011;61071;51.618;19.388;2022-12-10T16:48:15;140.90;;;47.47;;
72926;SDS011;61071;51.618;19.388;2022-12-10T16:50:41;155.02;;;54.95;;
72926;SDS011;61071;51.618;19.388;2022-12-10T16:53:19;146.40;;;51.17;;